Time;durP1;ratioP1;P1;durP2;ratioP2;P2;SDS_P1;SDS_P2;PMS_P1;PMS_P2;Temp;Humidity;BMP_temperature;BMP_pressure;BME280_temperature;BME280_humidity;BME280_pressure;Samples;Min_cycle;Max_cycle;Signal;HPM_P1;HPM_P2
2024/01/05 00:00:24;;;;;;;16.63;14.90;;;10.50;99.90;;;;;;5012364;29;20095;-80
2024/01/05 00:02:59;;;;;;;17.08;15.48;;;10.30;99.90;;;;;;5012842;29;20030;-80
2024/01/05 00:05:30;;;;;;;16.00;14.32;;;10.40;99.90;;;;;;5012498;29;20419;-80
2024/01/05 00:08:01;;;;;;;16.73;14.23;;;10.30;99.90;;;;;;5012442;29;20029;-81
2024/01/05 00:10:32;;;;;;;17.15;15.38;;;10.30;99.90;;;;;;5010921;29;20034;-80
2024/01/05 00:13:03;;;;;;;16.00;14.40;;;10.30;99.90;;;;;;5012210;29;20487;-81
2024/01/05 00:15:34;;;;;;;16.23;14.63;;;10.30;99.90;;;;;;5011211;29;20029;-80
2024/01/05 00:18:06;;;;;;;16.48;14.93;;;10.30;99.90;;;;;;5012218;29;20029;-80
2024/01/05 00:20:37;;;;;;;16.10;14.50;;;10.20;99.90;;;;;;5012151;29;20117;-80
2024/01/05 00:23:08;;;;;;;15.80;14.25;;;10.40;99.90;;;;;;5012299;29;20189;-80
2024/01/05 00:25:38;;;;;;;16.23;14.55;;;10.10;99.90;;;;;;5012023;29;20034;-80
2024/01/05 00:28:09;;;;;;;16.13;14.57;;;10.00;99.90;;;;;;5012439;29;20483;-81
2024/01/05 00:30:40;;;;;;;15.10;13.75;;;10.00;99.90;;;;;;5012267;29;20062;-80
2024/01/05 00:33:11;;;;;;;16.70;15.00;;;10.10;99.90;;;;;;5010835;29;20771;-81
2024/01/05 00:35:42;;;;;;;16.15;14.55;;;9.90;99.90;;;;;;5494354;23;20031;-79
2024/01/05 00:38:13;;;;;;;19.20;17.20;;;9.80;99.90;;;;;;5009898;29;20050;-80
2024/01/05 00:40:44;;;;;;;18.42;15.13;;;9.50;99.90;;;;;;5011798;29;20415;-80
2024/01/05 00:43:15;;;;;;;17.67;14.27;;;9.70;99.90;;;;;;5011639;29;20030;-81
2024/01/05 00:45:46;;;;;;;15.75;13.80;;;9.40;99.90;;;;;;5010368;29;20482;-80
2024/01/05 00:48:16;;;;;;;15.68;12.93;;;9.40;99.90;;;;;;5011720;29;20383;-80
2024/01/05 00:50:48;;;;;;;14.40;12.93;;;9.30;99.90;;;;;;5010267;29;20121;-81
2024/01/05 00:53:18;;;;;;;15.10;13.75;;;9.50;99.90;;;;;;5011617;29;20395;-80
2024/01/05 00:55:49;;;;;;;14.57;12.95;;;9.70;99.90;;;;;;5010138;29;20025;-80
2024/01/05 00:58:20;;;;;;;13.35;11.95;;;9.60;99.90;;;;;;5011506;29;20034;-79
2024/01/05 01:00:51;;;;;;;14.82;13.30;;;9.80;99.90;;;;;;5011507;29;20034;-80
2024/01/05 01:03:22;;;;;;;13.70;12.40;;;9.70;99.90;;;;;;5010230;29;20089;-80
2024/01/05 01:05:53;;;;;;;13.70;12.35;;;10.00;99.90;;;;;;5009863;29;20550;-80
2024/01/05 01:08:24;;;;;;;13.60;12.38;;;9.70;99.90;;;;;;5011393;29;20052;-80
2024/01/05 01:10:54;;;;;;;14.73;13.43;;;9.70;99.90;;;;;;5011081;29;20101;-80
2024/01/05 01:13:25;;;;;;;13.93;12.60;;;9.60;99.90;;;;;;5009745;29;20034;-80
2024/01/05 01:15:56;;;;;;;14.75;13.27;;;9.40;99.90;;;;;;5010054;29;20166;-80
2024/01/05 01:18:27;;;;;;;13.02;11.75;;;9.30;99.90;;;;;;5010050;29;20034;-80
2024/01/05 01:20:58;;;;;;;13.15;11.93;;;9.20;99.90;;;;;;5011288;29;20118;-80
2024/01/05 01:23:29;;;;;;;14.55;12.00;;;9.10;99.90;;;;;;5010918;29;20059;-80
2024/01/05 01:26:00;;;;;;;14.85;13.27;;;8.90;99.90;;;;;;5009923;29;20038;-80
2024/01/05 01:28:31;;;;;;;13.98;12.65;;;8.70;99.90;;;;;;5011098;29;20018;-79
2024/01/05 01:31:02;;;;;;;13.50;12.30;;;8.90;99.90;;;;;;5010910;29;20045;-79
2024/01/05 01:33:32;;;;;;;16.40;14.82;;;8.70;99.90;;;;;;5009068;29;20058;-80
2024/01/05 01:36:04;;;;;;;15.00;13.50;;;8.80;99.90;;;;;;5008898;29;20062;-80
2024/01/05 01:38:35;;;;;;;15.75;14.18;;;8.40;99.90;;;;;;5010861;29;20079;-80
2024/01/05 01:41:06;;;;;;;14.85;13.25;;;8.80;99.90;;;;;;5010855;29;20122;-79
2024/01/05 01:43:36;;;;;;;17.65;15.98;;;8.80;99.90;;;;;;5010696;29;20109;-80
2024/01/05 01:46:08;;;;;;;15.73;14.18;;;8.70;99.90;;;;;;5009524;29;20034;-80
2024/01/05 01:48:40;;;;;;;16.48;14.80;;;8.70;99.90;;;;;;5010651;29;20112;-80
2024/01/05 01:51:12;;;;;;;16.83;15.13;;;8.80;99.90;;;;;;5009325;29;20376;-80
2024/01/05 01:53:44;;;;;;;14.35;12.77;;;8.60;99.90;;;;;;5009438;29;20040;-79
2024/01/05 01:56:15;;;;;;;14.63;13.15;;;8.60;99.90;;;;;;5010534;29;20029;-80
2024/01/05 01:58:46;;;;;;;14.50;13.00;;;8.70;99.90;;;;;;5009204;29;20029;-80
2024/01/05 02:01:17;;;;;;;13.52;12.30;;;8.50;99.90;;;;;;5010317;29;20041;-80
2024/01/05 02:03:49;;;;;;;13.90;12.60;;;8.60;99.90;;;;;;5010416;29;20030;-80
2024/01/05 02:06:20;;;;;;;14.70;13.20;;;8.40;99.90;;;;;;5008688;29;20129;-79
2024/01/05 02:08:51;;;;;;;13.77;12.68;;;8.00;99.90;;;;;;5009044;29;20487;-79
2024/01/05 02:11:22;;;;;;;14.45;13.05;;;8.20;99.90;;;;;;5010267;29;20041;-79
2024/01/05 02:13:53;;;;;;;13.13;11.75;;;8.40;99.90;;;;;;5010034;29;20033;-80
2024/01/05 02:16:24;;;;;;;12.50;11.20;;;8.30;99.90;;;;;;5010125;29;20037;-80
2024/01/05 02:18:55;;;;;;;12.52;11.25;;;;;;;;;;5009852;29;20042;-80
2024/01/05 02:21:32;;;;;;;14.02;11.88;;;;;;;;;;5008841;29;20030;-79
2024/01/05 02:24:04;;;;;;;14.23;12.82;;;8.30;99.90;;;;;;5010173;29;20030;-80
2024/01/05 02:26:35;;;;;;;12.23;10.75;;;8.20;99.90;;;;;;5010241;29;20125;-80
2024/01/05 02:29:05;;;;;;;13.82;11.50;;;8.40;99.90;;;;;;5009846;29;20113;-80
2024/01/05 02:31:36;;;;;;;13.15;11.88;;;8.20;99.90;;;;;;5009789;29;20041;-80
2024/01/05 02:34:07;;;;;;;13.40;12.05;;;8.20;99.90;;;;;;5010007;29;20474;-80
2024/01/05 02:36:38;;;;;;;13.20;12.05;;;8.10;99.90;;;;;;5009778;29;20053;-80
2024/01/05 02:39:11;;;;;;;14.70;13.40;;;8.00;99.90;;;;;;5009752;29;20038;-80
2024/01/05 02:41:42;;;;;;;15.48;14.27;;;7.90;99.90;;;;;;5008357;29;20129;-80
2024/01/05 02:44:12;;;;;;;14.80;13.50;;;7.80;99.90;;;;;;5008521;29;20120;-80
2024/01/05 02:46:43;;;;;;;14.95;13.55;;;7.90;99.90;;;;;;5009548;29;20034;-80
2024/01/05 02:49:14;;;;;;;14.68;13.55;;;7.80;99.90;;;;;;5009704;29;20111;-80
2024/01/05 02:51:45;;;;;;;14.68;13.38;;;;;;;;;;5008599;29;20037;-79
2024/01/05 02:54:16;;;;;;;15.52;14.20;;;7.70;99.90;;;;;;5009788;29;20038;-80
2024/01/05 02:56:47;;;;;;;15.10;13.70;;;7.60;99.90;;;;;;5008283;29;20086;-80
2024/01/05 02:59:19;;;;;;;15.95;14.65;;;7.60;99.90;;;;;;5009526;29;20045;-79
2024/01/05 03:01:50;;;;;;;16.50;14.93;;;7.30;99.90;;;;;;5009619;29;20078;-79
2024/01/05 03:04:20;;;;;;;15.95;14.65;;;7.60;99.90;;;;;;5008242;29;20038;-80
2024/01/05 03:06:51;;;;;;;15.48;14.07;;;7.60;99.90;;;;;;5009474;29;20122;-80
2024/01/05 03:09:22;;;;;;;15.50;14.05;;;7.60;99.90;;;;;;5008085;29;20030;-79
2024/01/05 03:11:53;;;;;;;15.00;13.60;;;7.40;99.90;;;;;;5009668;29;20034;-80
2024/01/05 03:14:24;;;;;;;17.90;16.13;;;7.50;99.90;;;;;;5008398;29;20030;-79
2024/01/05 03:16:55;;;;;;;17.23;15.45;;;7.40;99.90;;;;;;5009431;29;20034;-80
2024/01/05 03:19:26;;;;;;;18.92;17.00;;;7.50;99.90;;;;;;5009389;29;20042;-80
2024/01/05 03:21:57;;;;;;;16.63;15.18;;;;;;;;;;5009496;29;20531;-80
2024/01/05 03:24:28;;;;;;;17.58;15.98;;;;;;;;;;5009761;29;20762;-80
2024/01/05 03:26:59;;;;;;;18.55;16.88;;;;;;;;;;5009512;29;20030;-79
2024/01/05 03:29:30;;;;;;;16.58;15.07;;;;;;;;;;5008284;29;20120;-79
2024/01/05 03:32:01;;;;;;;17.25;15.95;;;;;;;;;;5009493;29;20079;-81
2024/01/05 03:34:33;;;;;;;16.55;15.02;;;;;;;;;;5008183;29;20034;-80
2024/01/05 03:37:04;;;;;;;17.65;16.25;;;;;;;;;;5007725;29;20058;-79
2024/01/05 03:39:35;;;;;;;17.65;16.23;;;;;;;;;;5008087;29;20137;-81
2024/01/05 03:42:06;;;;;;;18.42;16.83;;;;;;;;;;5009338;29;20030;-79
2024/01/05 03:44:37;;;;;;;18.65;17.10;;;;;;;;;;5008132;29;20042;-80
2024/01/05 03:47:08;;;;;;;19.77;18.08;;;;;;;;;;5008116;29;20026;-80
2024/01/05 03:49:40;;;;;;;16.70;15.30;;;;;;;;;;5008058;29;20034;-80
2024/01/05 03:52:11;;;;;;;16.45;14.93;;;;;;;;;;5009285;29;20041;-79
2024/01/05 03:54:42;;;;;;;18.20;16.63;;;;;;;;;;5007981;29;20038;-79
2024/01/05 03:57:13;;;;;;;17.55;15.95;;;;;;;;;;5009478;29;20033;-80
2024/01/05 03:59:45;;;;;;;17.90;16.48;;;;;;;;;;5012528;29;20042;-80
2024/01/05 04:02:16;;;;;;;17.08;15.63;;;;;;;;;;5012568;29;20097;-80
2024/01/05 04:04:47;;;;;;;18.30;16.70;;;;;;;;;;5011301;29;20037;-79
2024/01/05 04:07:18;;;;;;;17.83;16.33;;;;;;;;;;5012307;29;20751;-80
2024/01/05 04:09:50;;;;;;;17.75;16.05;;;;;;;;;;5011226;29;20038;-79
2024/01/05 04:12:21;;;;;;;18.27;16.77;;;7.10;99.90;;;;;;5011248;29;20041;-80
2024/01/05 04:14:52;;;;;;;16.92;15.63;;;7.00;99.90;;;;;;5012233;29;20798;-80
2024/01/05 04:17:23;;;;;;;18.10;16.38;;;6.90;99.90;;;;;;5012272;29;20033;-80
2024/01/05 04:19:54;;;;;;;17.48;15.98;;;;;;;;;;5011997;29;20045;-80
2024/01/05 04:22:30;;;;;;;18.35;16.85;;;6.60;99.90;;;;;;5011309;29;20082;-80
2024/01/05 04:25:02;;;;;;;19.30;17.33;;;6.40;99.90;;;;;;5011139;29;20037;-80
2024/01/05 04:27:33;;;;;;;18.17;16.63;;;6.60;99.90;;;;;;5012133;29;20062;-80
2024/01/05 04:30:05;;;;;;;20.90;18.75;;;6.40;99.90;;;;;;5010631;29;20034;-79
2024/01/05 04:32:36;;;;;;;21.63;19.73;;;6.10;99.90;;;;;;5010862;29;20063;-80
2024/01/05 04:35:07;;;;;;;19.77;18.08;;;6.00;99.90;;;;;;5011723;29;20026;-79
2024/01/05 04:37:38;;;;;;;19.88;18.08;;;6.10;99.90;;;;;;5011832;29;20106;-80
2024/01/05 04:40:10;;;;;;;19.23;17.35;;;6.10;99.90;;;;;;5010714;29;20126;-80
2024/01/05 04:42:41;;;;;;;18.42;16.48;;;5.90;99.90;;;;;;5011962;29;20159;-79
2024/01/05 04:45:13;;;;;;;19.92;18.15;;;6.00;99.90;;;;;;5010667;29;20117;-80
2024/01/05 04:47:46;;;;;;;20.60;18.88;;;6.10;99.90;;;;;;5010553;29;20867;-79
2024/01/05 04:50:17;;;;;;;21.33;19.42;;;5.90;99.90;;;;;;5010521;29;20034;-79
2024/01/05 04:52:48;;;;;;;21.33;19.42;;;5.60;99.90;;;;;;5011763;29;20113;-80
2024/01/05 04:55:20;;;;;;;20.30;18.50;;;6.60;99.90;;;;;;5010344;29;20034;-80
2024/01/05 04:57:51;;;;;;;19.60;17.90;;;6.10;99.90;;;;;;5010341;29;20053;-79
2024/01/05 05:00:22;;;;;;;18.52;16.85;;;6.10;99.90;;;;;;5010339;29;20034;-80
2024/01/05 05:02:53;;;;;;;20.67;18.90;;;6.00;99.90;;;;;;5011549;29;20041;-79
2024/01/05 05:05:25;;;;;;;20.42;18.40;;;5.80;99.90;;;;;;5011238;29;20030;-79
2024/01/05 05:07:56;;;;;;;19.73;17.92;;;5.90;99.90;;;;;;5011425;29;20034;-80
2024/01/05 05:10:27;;;;;;;19.85;17.92;;;5.90;99.90;;;;;;5011054;29;20034;-80
2024/01/05 05:12:58;;;;;;;22.42;16.92;;;5.80;99.90;;;;;;5010138;29;20041;-79
2024/01/05 05:15:29;;;;;;;18.63;16.70;;;;;;;;;;5011848;29;20026;-80
2024/01/05 05:18:00;;;;;;;17.92;16.23;;;5.30;99.90;;;;;;5011427;29;20041;-80
2024/01/05 05:20:31;;;;;;;18.73;16.13;;;5.50;99.90;;;;;;5011202;29;20038;-80
2024/01/05 05:23:02;;;;;;;17.95;16.25;;;;;;;;;;5010842;29;20061;-80
2024/01/05 05:25:33;;;;;;;19.10;17.02;;;5.60;99.90;;;;;;5009869;29;20900;-79
2024/01/05 05:28:04;;;;;;;16.88;15.15;;;5.40;99.90;;;;;;5009876;29;20032;-80
2024/01/05 05:30:35;;;;;;;18.92;16.83;;;5.60;99.90;;;;;;5009632;29;20483;-80
2024/01/05 05:33:06;;;;;;;20.35;18.17;;;5.60;99.90;;;;;;5010677;29;20044;-80
2024/01/05 05:35:37;;;;;;;20.33;17.50;;;5.90;99.90;;;;;;5010808;29;20030;-80
2024/01/05 05:38:08;;;;;;;20.38;16.45;;;5.80;99.90;;;;;;5009346;29;20049;-80
2024/01/05 05:40:39;;;;;;;26.70;17.17;;;6.10;99.90;;;;;;5010650;29;20030;-79
2024/01/05 05:43:09;;;;;;;23.45;19.15;;;5.70;99.90;;;;;;5010648;29;20101;-80
2024/01/05 05:45:41;;;;;;;31.25;21.45;;;6.00;99.90;;;;;;5009477;29;20109;-80
2024/01/05 05:48:15;;;;;;;40.60;35.55;;;5.80;99.90;;;;;;5009211;29;20117;-80
2024/01/05 05:50:46;;;;;;;34.40;28.23;;;5.90;99.90;;;;;;5010508;29;20065;-80
2024/01/05 05:53:16;;;;;;;42.67;33.83;;;5.90;99.90;;;;;;5009321;29;20120;-81
2024/01/05 05:55:48;;;;;;;23.45;17.67;;;6.20;99.90;;;;;;5010138;29;20030;-80
2024/01/05 05:58:19;;;;;;;19.60;15.70;;;6.10;99.90;;;;;;5010374;29;20038;-80
2024/01/05 06:00:50;;;;;;;16.48;14.07;;;6.30;99.90;;;;;;5010358;29;20033;-79
2024/01/05 06:03:22;;;;;;;19.15;14.75;;;6.40;99.90;;;;;;5010504;29;20094;-79
2024/01/05 06:05:53;;;;;;;102.05;86.82;;;6.60;99.90;;;;;;5010001;29;20121;-79
2024/01/05 06:08:24;;;;;;;35.25;31.48;;;6.40;99.90;;;;;;5010287;29;20105;-79
2024/01/05 06:10:55;;;;;;;25.42;22.52;;;6.20;99.90;;;;;;5010365;29;20030;-78
2024/01/05 06:13:26;;;;;;;19.83;16.00;;;6.50;99.90;;;;;;5010002;29;20040;-79
2024/01/05 06:15:57;;;;;;;23.13;20.55;;;6.30;99.90;;;;;;5009016;29;20056;-77
2024/01/05 06:18:29;;;;;;;16.08;14.13;;;6.00;99.90;;;;;;5010204;29;20038;-78
2024/01/05 06:21:00;;;;;;;19.35;15.20;;;6.20;99.90;;;;;;5009726;29;20054;-79
2024/01/05 06:23:32;;;;;;;17.00;15.25;;;5.80;99.90;;;;;;5009829;29;20033;-80
2024/01/05 06:26:03;;;;;;;16.52;14.77;;;5.80;99.90;;;;;;5008842;29;20065;-79
2024/01/05 06:28:33;;;;;;;20.17;14.32;;;6.00;99.90;;;;;;5008966;29;20501;-79
2024/01/05 06:31:05;;;;;;;15.82;13.68;;;6.10;99.90;;;;;;5009808;29;20029;-78
2024/01/05 06:33:36;;;;;;;16.08;14.38;;;5.90;99.90;;;;;;4994300;29;20035;-77
2024/01/05 06:36:07;;;;;;;16.85;14.48;;;6.10;99.90;;;;;;4989554;29;20061;-77
2024/01/05 06:38:38;;;;;;;15.00;13.40;;;5.90;99.90;;;;;;4991152;29;20042;-77
2024/01/05 06:41:09;;;;;;;15.60;13.73;;;5.80;99.90;;;;;;4991080;29;20030;-79
2024/01/05 06:43:40;;;;;;;15.90;14.20;;;5.90;99.90;;;;;;4991214;29;20387;-79
2024/01/05 06:46:11;;;;;;;15.98;13.88;;;5.60;99.90;;;;;;4991194;29;20034;-79
2024/01/05 06:48:42;;;;;;;18.33;14.13;;;5.90;99.90;;;;;;4989703;29;20034;-79
2024/01/05 06:51:13;;;;;;;16.83;14.35;;;6.50;99.90;;;;;;4991129;29;20428;-80
2024/01/05 06:53:43;;;;;;;16.35;14.25;;;7.50;99.90;;;;;;4991020;29;20026;-78
2024/01/05 06:56:14;;;;;;;15.48;13.98;;;7.50;99.90;;;;;;4991032;29;20041;-78
2024/01/05 06:58:45;;;;;;;16.38;13.75;;;7.80;99.90;;;;;;4990965;29;20034;-79
2024/01/05 07:01:17;;;;;;;15.95;14.50;;;7.20;99.90;;;;;;4990784;29;20109;-79
2024/01/05 07:03:48;;;;;;;17.02;15.52;;;7.60;99.90;;;;;;4989762;29;20100;-80
2024/01/05 07:06:19;;;;;;;17.23;15.70;;;7.60;99.90;;;;;;4990690;29;20038;-79
2024/01/05 07:08:50;;;;;;;19.33;17.63;;;8.50;99.90;;;;;;4990835;29;20038;-79
2024/01/05 07:11:22;;;;;;;18.10;16.40;;;8.40;99.90;;;;;;4990718;29;20031;-79
2024/01/05 07:13:54;;;;;;;16.92;15.52;;;7.90;99.90;;;;;;4989849;29;20125;-79
2024/01/05 07:16:25;;;;;;;16.08;14.77;;;8.10;99.90;;;;;;4990999;29;20057;-81
2024/01/05 07:18:56;;;;;;;16.40;15.15;;;8.20;99.90;;;;;;4990844;29;20062;-79
2024/01/05 07:21:27;;;;;;;16.90;15.43;;;8.40;99.90;;;;;;4990677;29;20030;-80
2024/01/05 07:23:58;;;;;;;16.83;14.23;;;8.50;99.90;;;;;;4989552;29;20086;-78
2024/01/05 07:26:29;;;;;;;13.73;12.40;;;8.50;99.90;;;;;;5004692;29;20037;-79
2024/01/05 07:28:59;;;;;;;13.73;12.52;;;8.50;99.90;;;;;;4989309;29;20056;-80
2024/01/05 07:31:31;;;;;;;14.75;13.55;;;8.80;99.90;;;;;;4990392;29;20487;-80
2024/01/05 07:34:02;;;;;;;12.50;11.40;;;9.00;99.90;;;;;;4993308;29;20130;-79
2024/01/05 07:36:33;;;;;;;14.15;12.95;;;8.70;99.90;;;;;;4993827;29;20503;-80
2024/01/05 07:39:04;;;;;;;13.48;12.27;;;8.80;99.90;;;;;;5008042;29;20041;-79
2024/01/05 07:41:35;;;;;;;13.20;11.90;;;9.00;99.90;;;;;;4992727;29;20510;-81
2024/01/05 07:44:06;;;;;;;11.10;9.88;;;9.50;99.90;;;;;;4993739;29;20030;-80
2024/01/05 07:46:41;;;;;;;10.25;9.35;;;9.70;99.90;;;;;;4993852;29;20033;-80
2024/01/05 07:49:12;;;;;;;10.88;9.82;;;9.60;99.90;;;;;;4992873;29;20530;-80
2024/01/05 07:51:43;;;;;;;9.77;8.95;;;9.80;99.90;;;;;;4992346;29;20038;-81
2024/01/05 07:54:14;;;;;;;9.95;8.95;;;10.10;99.90;;;;;;4992537;29;20022;-81
2024/01/05 07:56:45;;;;;;;10.65;8.60;;;10.20;99.90;;;;;;4992383;29;20039;-81
2024/01/05 07:59:16;;;;;;;10.07;8.60;;;10.30;99.90;;;;;;4993571;29;20038;-81
2024/01/05 08:01:51;;;;;;;9.68;8.05;;;10.70;99.90;;;;;;4992232;29;20034;-80
2024/01/05 08:04:22;;;;;;;10.07;9.15;;;11.00;99.90;;;;;;4993483;29;20412;-82
2024/01/05 08:06:53;;;;;;;10.98;9.98;;;11.10;99.90;;;;;;4992201;29;20041;-81
2024/01/05 08:09:24;;;;;;;10.38;9.45;;;11.00;99.90;;;;;;4993330;29;20034;-80
2024/01/05 08:11:55;;;;;;;15.00;13.38;;;11.30;99.90;;;;;;4993483;29;20030;-80
2024/01/05 08:14:26;;;;;;;9.77;8.88;;;11.60;99.90;;;;;;4992220;29;20033;-80
2024/01/05 08:16:57;;;;;;;8.45;7.75;;;11.50;99.90;;;;;;4993318;29;20114;-80
2024/01/05 08:19:28;;;;;;;8.00;7.40;;;11.90;99.90;;;;;;4991735;29;20519;-80
2024/01/05 08:21:59;;;;;;;9.02;8.38;;;12.00;99.90;;;;;;4991998;29;20053;-82
2024/01/05 08:24:30;;;;;;;11.43;10.63;;;12.30;99.90;;;;;;4993070;29;20081;-80
2024/01/05 08:27:00;;;;;;;13.57;12.68;;;12.40;99.90;;;;;;4993254;29;20023;-82
2024/01/05 08:29:33;;;;;;;12.95;11.95;;;12.70;99.90;;;;;;4993189;29;20065;-82
2024/01/05 08:32:04;;;;;;;13.98;12.98;;;12.70;99.90;;;;;;4991736;29;20069;-83
2024/01/05 08:34:35;;;;;;;13.25;12.35;;;13.00;99.90;;;;;;4992435;29;20041;-81
2024/01/05 08:37:06;;;;;;;13.27;12.32;;;13.10;99.90;;;;;;4993140;29;20054;-82
2024/01/05 08:39:40;;;;;;;17.98;16.60;;;13.60;99.90;;;;;;4991522;29;20061;-84
2024/01/05 08:42:11;;;;;;;14.38;13.30;;;13.70;99.90;;;;;;4992960;29;20361;-82
2024/01/05 08:44:42;;;;;;;17.60;16.15;;;13.80;99.90;;;;;;4991345;29;20037;-82
2024/01/05 08:47:13;;;;;;;14.65;13.27;;;14.30;99.90;;;;;;4993062;29;20035;-79
2024/01/05 08:49:44;;;;;;;13.77;12.60;;;13.90;99.90;;;;;;5006784;29;20037;-77
2024/01/05 08:52:14;;;;;;;12.68;11.68;;;14.80;99.90;;;;;;4992645;29;20054;-81
2024/01/05 08:54:45;;;;;;;14.02;12.90;;;14.40;99.90;;;;;;4992434;29;20091;-80
2024/01/05 08:57:16;;;;;;;17.80;16.48;;;14.50;99.90;;;;;;4992647;29;20037;-82
2024/01/05 08:59:47;;;;;;;16.67;15.00;;;14.50;99.90;;;;;;4991474;29;20038;-83
2024/01/05 09:02:18;;;;;;;16.45;15.40;;;14.80;99.90;;;;;;4992949;29;20054;-81
2024/01/05 09:04:49;;;;;;;16.58;15.48;;;14.80;99.90;;;;;;4992487;29;20027;-78
2024/01/05 09:07:20;;;;;;;13.07;12.13;;;14.70;99.90;;;;;;4991143;29;20035;-81
2024/01/05 09:09:51;;;;;;;11.95;11.15;;;14.40;99.90;;;;;;4992230;29;20380;-81
2024/01/05 09:12:22;;;;;;;10.55;9.85;;;14.50;99.90;;;;;;4992085;29;20038;-79
2024/01/05 09:14:53;;;;;;;10.88;10.07;;;14.90;99.90;;;;;;4992448;29;20344;-77
2024/01/05 09:17:24;;;;;;;9.40;8.52;;;15.30;99.90;;;;;;4992389;29;20082;-79
2024/01/05 09:19:55;;;;;;;30.92;20.65;;;15.50;99.90;;;;;;4992178;29;20038;-84
2024/01/05 09:22:26;;;;;;;9.68;8.98;;;15.30;99.90;;;;;;4992128;29;20038;-81
2024/01/05 09:24:57;;;;;;;9.88;9.07;;;15.90;99.90;;;;;;4992346;29;20488;-84
2024/01/05 09:27:28;;;;;;;9.50;8.90;;;16.00;99.90;;;;;;4992029;29;20133;-80
2024/01/05 09:29:59;;;;;;;10.35;9.55;;;15.90;99.90;;;;;;4992224;29;20060;-79
2024/01/05 09:32:31;;;;;;;10.57;9.88;;;15.90;99.90;;;;;;4991073;29;20087;-79
2024/01/05 09:35:02;;;;;;;11.18;10.15;;;16.10;99.90;;;;;;4990459;29;20026;-77
2024/01/05 09:37:34;;;;;;;10.13;9.52;;;16.40;99.90;;;;;;4996679;29;20069;-84
2024/01/05 09:40:05;;;;;;;9.93;9.30;;;16.00;99.90;;;;;;5010126;29;20038;-79
2024/01/05 09:42:38;;;;;;;10.57;9.60;;;16.60;99.90;;;;;;5008920;29;20026;-79
2024/01/05 09:45:11;;;;;;;9.98;9.38;;;17.20;99.90;;;;;;5010566;29;20025;-78
2024/01/05 09:47:43;;;;;;;9.65;8.85;;;17.20;99.90;;;;;;5010593;29;20030;-82
2024/01/05 09:50:16;;;;;;;8.80;7.90;;;17.30;99.90;;;;;;5010631;29;20421;-80
2024/01/05 09:52:46;;;;;;;7.88;7.18;;;17.40;99.90;;;;;;5009400;29;20399;-78
2024/01/05 09:55:17;;;;;;;8.23;7.55;;;17.30;99.90;;;;;;5008327;29;20030;-86
2024/01/05 09:57:50;;;;;;;8.38;7.68;;;17.20;99.90;;;;;;5010456;29;20025;-79
2024/01/05 10:00:23;;;;;;;9.68;7.10;;;17.30;99.90;;;;;;5010416;29;20042;-81
2024/01/05 10:03:02;;;;;;;6.57;5.97;;;17.00;99.90;;;;;;5009172;29;20061;-81
2024/01/05 10:05:33;;;;;;;7.50;6.90;;;17.70;99.90;;;;;;5010249;29;20386;-81
2024/01/05 10:08:04;;;;;;;7.07;6.43;;;17.80;99.90;;;;;;5010198;29;20125;-80
2024/01/05 10:11:01;;;;;;;6.75;6.18;;;17.70;99.90;;;;;;5010234;29;20433;-79
2024/01/05 10:13:32;;;;;;;8.05;7.43;;;18.00;99.90;;;;;;5010241;29;20040;-78
2024/01/05 10:16:04;;;;;;;6.68;6.20;;;18.40;99.90;;;;;;5010019;29;20101;-81
2024/01/05 10:18:35;;;;;;;6.55;6.15;;;18.00;99.90;;;;;;5009975;29;20041;-82
2024/01/05 10:21:10;;;;;;;7.22;6.68;;;18.20;99.90;;;;;;5009846;29;20034;-84
2024/01/05 10:23:42;;;;;;;7.50;6.80;;;18.10;99.90;;;;;;5010140;29;20413;-77
2024/01/05 10:26:18;;;;;;;7.20;6.63;;;18.30;99.90;;;;;;5009901;29;20038;-79
2024/01/05 10:28:49;;;;;;;6.80;6.28;;;18.00;99.90;;;;;;5010097;29;20026;-78
2024/01/05 10:31:20;;;;;;;6.93;6.32;;;18.00;99.90;;;;;;5009853;29;20045;-82
2024/01/05 10:33:52;;;;;;;7.45;6.95;;;18.20;99.90;;;;;;5009978;29;20535;-83
2024/01/05 10:36:26;;;;;;;8.30;7.70;;;17.90;99.90;;;;;;5009619;29;20100;-77
2024/01/05 10:38:57;;;;;;;8.38;7.78;;;17.90;99.90;;;;;;5008629;29;20140;-77
2024/01/05 10:41:28;;;;;;;8.27;7.78;;;17.90;99.90;;;;;;5010109;29;20081;-79
2024/01/05 10:44:01;;;;;;;9.60;8.95;;;18.00;99.90;;;;;;5009560;29;20069;-82
2024/01/05 10:46:33;;;;;;;11.98;11.18;;;18.00;99.90;;;;;;5008371;29;20033;-79
2024/01/05 10:49:04;;;;;;;8.70;8.10;;;17.90;99.90;;;;;;5008427;29;20068;-81
2024/01/05 10:51:36;;;;;;;8.38;7.65;;;17.90;99.90;;;;;;5008582;29;20037;-81
2024/01/05 10:54:07;;;;;;;8.93;8.25;;;18.00;99.90;;;;;;5008487;29;20034;-83
2024/01/05 10:56:42;;;;;;;8.45;7.75;;;18.30;99.90;;;;;;5008413;29;20030;-77
2024/01/05 10:59:13;;;;;;;8.23;7.57;;;18.30;99.90;;;;;;5008162;29;20053;-77
2024/01/05 11:01:46;;;;;;;7.55;7.07;;;18.40;99.90;;;;;;5009498;29;20026;-78
2024/01/05 11:04:21;;;;;;;7.95;7.45;;;18.50;99.90;;;;;;5009455;29;20045;-83
2024/01/05 11:06:54;;;;;;;8.73;7.88;;;18.20;99.90;;;;;;5009587;29;20034;-78
2024/01/05 11:09:41;;;;;;;8.15;7.38;;;18.50;99.90;;;;;;5013924;29;20062;-84
2024/01/05 11:12:33;;;;;;;7.00;6.25;;;18.10;99.90;;;;;;5013584;29;20034;-77
2024/01/05 11:15:30;;;;;;;7.65;7.10;;;18.60;99.90;;;;;;5012902;29;20026;-86
2024/01/05 11:18:14;;;;;;;6.80;6.20;;;18.50;99.90;;;;;;5011632;29;20483;-77
2024/01/05 11:21:16;;;;;;;7.40;6.80;;;18.70;99.90;;;;;;5027264;29;20030;-79
2024/01/05 11:23:49;;;;;;;6.70;6.13;;;18.30;99.90;;;;;;5027562;29;20037;-83
2024/01/05 11:26:36;;;;;;;4.40;4.00;;;18.60;99.90;;;;;;5011720;29;20030;-78
2024/01/05 11:29:12;;;;;;;5.78;4.90;;;18.50;99.90;;;;;;5012999;29;20551;-80
2024/01/05 11:31:46;;;;;;;67.65;10.77;;;18.50;99.90;;;;;;5012990;29;20395;-77
2024/01/05 11:34:30;;;;;;;5.00;4.60;;;19.00;99.90;;;;;;5010769;29;20498;-77
2024/01/05 11:37:04;;;;;;;4.70;4.32;;;19.40;99.90;;;;;;5012640;29;20054;-81
2024/01/05 11:39:48;;;;;;;6.25;4.25;;;18.80;99.90;;;;;;5012388;29;20508;-78
2024/01/05 11:42:25;;;;;;;5.97;4.30;;;18.80;99.90;;;;;;5009527;29;20049;-76
2024/01/05 11:44:59;;;;;;;5.15;4.75;;;18.60;99.90;;;;;;4993699;29;20035;-76
2024/01/05 11:47:40;;;;;;;6.75;6.18;;;18.80;99.90;;;;;;4999928;29;20113;-82
2024/01/05 11:50:30;;;;;;;6.93;6.32;;;18.70;99.90;;;;;;5012718;29;20467;-79
2024/01/05 11:53:19;;;;;;;8.25;7.72;;;18.50;99.90;;;;;;4992428;29;20205;-78
2024/01/05 11:55:58;;;;;;;7.57;6.97;;;18.10;99.90;;;;;;4993923;29;20479;-80
2024/01/05 11:58:38;;;;;;;8.35;7.70;;;18.40;99.90;;;;;;5013178;29;20107;-83
2024/01/05 12:01:11;;;;;;;7.60;7.00;;;18.60;99.90;;;;;;5005350;29;20033;-79
2024/01/05 12:03:43;;;;;;;7.75;7.30;;;18.20;99.90;;;;;;5012313;29;20669;-78
2024/01/05 12:06:14;;;;;;;8.35;7.68;;;18.20;99.90;;;;;;5011150;29;20050;-76
2024/01/05 12:08:45;;;;;;;7.57;6.97;;;18.20;99.90;;;;;;5011560;29;20391;-78
2024/01/05 12:11:16;;;;;;;7.28;6.57;;;18.60;99.90;;;;;;5012280;29;20030;-81
2024/01/05 12:13:47;;;;;;;8.60;8.07;;;18.20;99.90;;;;;;5010924;29;20034;-83
2024/01/05 12:16:18;;;;;;;9.32;8.70;;;18.40;99.90;;;;;;5012365;29;20106;-78
2024/01/05 12:18:50;;;;;;;8.98;8.35;;;18.40;99.90;;;;;;5009905;29;20046;-77
2024/01/05 12:21:22;;;;;;;10.38;9.60;;;18.20;99.90;;;;;;5010819;29;20090;-80
2024/01/05 12:23:55;;;;;;;16.55;15.30;;;18.00;99.90;;;;;;5010850;29;20138;-81
2024/01/05 12:26:29;;;;;;;9.65;8.95;;;18.80;99.90;;;;;;5011799;29;20074;-81
2024/01/05 12:29:00;;;;;;;7.30;6.80;;;18.30;99.90;;;;;;5012122;29;20449;-77
2024/01/05 12:31:33;;;;;;;8.10;7.50;;;17.90;99.90;;;;;;5010545;29;20025;-76
2024/01/05 12:34:05;;;;;;;8.68;7.97;;;18.30;99.90;;;;;;5011835;29;20038;-83
2024/01/05 12:36:36;;;;;;;7.43;6.10;;;18.50;99.90;;;;;;5011358;29;20046;-83
2024/01/05 12:39:10;;;;;;;4.82;4.50;;;18.90;99.90;;;;;;5011621;29;20375;-79
2024/01/05 12:41:45;;;;;;;8.10;7.50;;;18.90;99.90;;;;;;5010643;29;20368;-82
2024/01/05 12:44:17;;;;;;;7.35;6.85;;;;;;;;;;5011644;29;20053;-76
2024/01/05 12:46:49;;;;;;;4.55;4.15;;;19.00;99.90;;;;;;5011376;29;20026;-85
2024/01/05 12:49:21;;;;;;;7.07;6.47;;;19.80;99.90;;;;;;5012028;29;20063;-84
2024/01/05 12:51:53;;;;;;;5.70;5.30;;;20.00;99.90;;;;;;5011643;29;20057;-77
2024/01/05 12:54:25;;;;;;;8.38;7.68;;;28.00;99.90;;;;;;5010091;29;20030;-84
2024/01/05 12:56:56;;;;;;;10.35;8.90;;;28.90;99.90;;;;;;5011530;29;20063;-82
2024/01/05 12:59:27;;;;;;;7.45;6.68;;;29.70;98.80;;;;;;5009555;29;20121;-86
2024/01/05 13:02:02;;;;;;;7.07;6.68;;;26.80;75.70;;;;;;5010830;29;20108;-78
2024/01/05 13:04:34;;;;;;;9.15;8.52;;;28.00;69.70;;;;;;5009160;29;20030;-76
2024/01/05 13:07:06;;;;;;;11.63;10.85;;;26.20;73.10;;;;;;5009915;29;20033;-78
2024/01/05 13:09:37;;;;;;;9.40;8.70;;;26.10;73.30;;;;;;5009763;29;20477;-78